Georgios S — V7VV8 — position and weather

sailwx.info

Track history (hours):
 
Tides and Currents Weather Stations Pressure Air Temp Water Temp Dewpoint Dewpoint Depression Visibility Wind Speed Wind Dir Waves Ship Positions

Georgios S

Last reported at 2017-Nov-25 04:00 UTC. Time now 2017-Nov-25 04:15 UTC.
Position N 30°58' W 014°56'.

Length 225 m; draft 6.7 m.

Type: Cargo ship. MMSI: 538007066.

Date/timePositionNaut miles runAvg speedWind from/ knotsBaromVisibWave heightAir tempDewpointWater temp
2017-Nov-25 04:00N 30°58' W 014°56'713.6
2017-Nov-25 03:30N 31°01' W 014°49'713.4
2017-Nov-25 03:00N 31°05' W 014°43'713.5
2017-Nov-25 02:30N 31°09' W 014°36'713.5
2017-Nov-25 02:00N 31°13' W 014°30'713.5
2017-Nov-25 01:30N 31°17' W 014°23'713.9
2017-Nov-25 01:00N 31°21' W 014°16'713.7
2017-Nov-25 00:30N 31°25' W 014°10'1113.5
2017-Nov-24 23:40N 31°31' W 013°59'413.6
2017-Nov-24 23:21N 31°33' W 013°55'713.4
2017-Nov-24 22:52N 31°37' W 013°48'813.8
2017-Nov-24 22:17N 31°42' W 013°41'413.7
2017-Nov-24 22:00N 31°44' W 013°37'713.6
2017-Nov-24 21:29N 31°48' W 013°30'813.8
2017-Nov-24 20:52N 31°53' W 013°22'514.0
2017-Nov-24 20:30N 31°56' W 013°17'713.9
2017-Nov-24 20:00N 31°60' W 013°10'713.9
2017-Nov-24 19:30N 32°03' W 013°04'713.5
2017-Nov-24 19:00N 32°07' W 012°57'11213.0
2017-Nov-24 10:25N 33°10' W 011°08'1013.8
2017-Nov-24 09:39N 33°17' W 010°58'213.6
2017-Nov-24 09:30N 33°18' W 010°56'713.8
2017-Nov-24 09:00N 33°22' W 010°49'713.9
2017-Nov-24 08:30N 33°26' W 010°42'7613.3
2017-Nov-24 02:46N 34°09' W 009°26'413.6
2017-Nov-24 02:28N 34°11' W 009°22'613.6
2017-Nov-24 02:00N 34°14' W 009°16'5713.4
2017-Nov-23 21:44N 34°47' W 008°18'11713.2
2017-Nov-23 12:53N 35°54' W 006°21'514.0
2017-Nov-23 12:30N 35°56' W 006°15'713.2
2017-Nov-23 12:00N 35°57' W 006°07'713.9
2017-Nov-23 11:30N 35°56' W 005°58'1813.2
2017-Nov-23 10:06N 35°58' W 005°36'111.5
2017-Nov-23 10:00N 35°58' W 005°34'510.9
2017-Nov-23 09:31N 35°60' W 005°28'4 8.7
2017-Nov-23 09:00N 36°03' W 005°24'6 2.1
2017-Nov-23 06:03N 36°09' W 005°22'0 0.0
2017-Nov-23 06:00N 36°09' W 005°22'0 0.0
2017-Nov-23 05:27N 36°09' W 005°22'0 0.0
2017-Nov-23 05:00N 36°09' W 005°22'0 0.0
2017-Nov-23 04:30N 36°09' W 005°22'0 0.0
2017-Nov-23 04:00N 36°09' W 005°22'0 0.2
2017-Nov-23 03:30N 36°09' W 005°22'0 0.2
2017-Nov-23 02:55N 36°09' W 005°22'0 0.1
2017-Nov-23 02:30N 36°09' W 005°23'0 0.0
2017-Nov-23 02:01N 36°09' W 005°23'0 0.2
2017-Nov-23 01:30N 36°09' W 005°22'0 0.3
2017-Nov-23 01:00N 36°09' W 005°23'1 1.7
2017-Nov-23 00:30N 36°08' W 005°23'3 5.6
2017-Nov-23 00:00N 36°05' W 005°21'4 9.0
2017-Nov-22 23:30N 36°05' W 005°16'  
2017-Nov-19 17:39N 36°39' E 013°59'212.3
2017-Nov-19 17:30N 36°38' E 014°01'612.1
2017-Nov-19 17:00N 36°36' E 014°09'611.8
2017-Nov-19 16:30N 36°35' E 014°16'611.6
2017-Nov-19 15:58N 36°33' E 014°23'511.7
2017-Nov-19 15:30N 36°31' E 014°30'611.5
2017-Nov-19 15:00N 36°29' E 014°36'611.4
2017-Nov-19 14:30N 36°28' E 014°43'611.0
2017-Nov-19 13:59N 36°26' E 014°50'  
Track history (hours):
 
Tides and Currents Weather Stations Pressure Air Temp Water Temp Dewpoint Dewpoint Depression Visibility Wind Speed Wind Dir Waves Ship Positions

Georgios S

Last reported at 2017-Nov-25 04:00 UTC. Time now 2017-Nov-25 04:15 UTC.
Position N 30°58' W 014°56'.

Length 225 m; draft 6.7 m.

Type: Cargo ship. MMSI: 538007066.

Date/timePositionNaut miles runAvg speedWind from/ knotsBaromVisibWave heightAir tempDewpointWater temp
2017-Nov-25 04:00N 30°58' W 014°56'713.6
2017-Nov-25 03:30N 31°01' W 014°49'713.4
2017-Nov-25 03:00N 31°05' W 014°43'713.5
2017-Nov-25 02:30N 31°09' W 014°36'713.5
2017-Nov-25 02:00N 31°13' W 014°30'713.5
2017-Nov-25 01:30N 31°17' W 014°23'713.9
2017-Nov-25 01:00N 31°21' W 014°16'713.7
2017-Nov-25 00:30N 31°25' W 014°10'1113.5
2017-Nov-24 23:40N 31°31' W 013°59'413.6
2017-Nov-24 23:21N 31°33' W 013°55'713.4
2017-Nov-24 22:52N 31°37' W 013°48'813.8
2017-Nov-24 22:17N 31°42' W 013°41'413.7
2017-Nov-24 22:00N 31°44' W 013°37'713.6
2017-Nov-24 21:29N 31°48' W 013°30'813.8
2017-Nov-24 20:52N 31°53' W 013°22'514.0
2017-Nov-24 20:30N 31°56' W 013°17'713.9
2017-Nov-24 20:00N 31°60' W 013°10'713.9
2017-Nov-24 19:30N 32°03' W 013°04'713.5
2017-Nov-24 19:00N 32°07' W 012°57'11213.0
2017-Nov-24 10:25N 33°10' W 011°08'1013.8
2017-Nov-24 09:39N 33°17' W 010°58'213.6
2017-Nov-24 09:30N 33°18' W 010°56'713.8
2017-Nov-24 09:00N 33°22' W 010°49'713.9
2017-Nov-24 08:30N 33°26' W 010°42'7613.3
2017-Nov-24 02:46N 34°09' W 009°26'413.6
2017-Nov-24 02:28N 34°11' W 009°22'613.6
2017-Nov-24 02:00N 34°14' W 009°16'5713.4
2017-Nov-23 21:44N 34°47' W 008°18'11713.2
2017-Nov-23 12:53N 35°54' W 006°21'514.0
2017-Nov-23 12:30N 35°56' W 006°15'713.2
2017-Nov-23 12:00N 35°57' W 006°07'713.9
2017-Nov-23 11:30N 35°56' W 005°58'1813.2
2017-Nov-23 10:06N 35°58' W 005°36'111.5
2017-Nov-23 10:00N 35°58' W 005°34'510.9
2017-Nov-23 09:31N 35°60' W 005°28'4 8.7
2017-Nov-23 09:00N 36°03' W 005°24'6 2.1
2017-Nov-23 06:03N 36°09' W 005°22'0 0.0
2017-Nov-23 06:00N 36°09' W 005°22'0 0.0
2017-Nov-23 05:27N 36°09' W 005°22'0 0.0
2017-Nov-23 05:00N 36°09' W 005°22'0 0.0
2017-Nov-23 04:30N 36°09' W 005°22'0 0.0
2017-Nov-23 04:00N 36°09' W 005°22'0 0.2
2017-Nov-23 03:30N 36°09' W 005°22'0 0.2
2017-Nov-23 02:55N 36°09' W 005°22'0 0.1
2017-Nov-23 02:30N 36°09' W 005°23'0 0.0
2017-Nov-23 02:01N 36°09' W 005°23'0 0.2
2017-Nov-23 01:30N 36°09' W 005°22'0 0.3
2017-Nov-23 01:00N 36°09' W 005°23'1 1.7
2017-Nov-23 00:30N 36°08' W 005°23'3 5.6
2017-Nov-23 00:00N 36°05' W 005°21'4 9.0
2017-Nov-22 23:30N 36°05' W 005°16'  
2017-Nov-19 17:39N 36°39' E 013°59'212.3
2017-Nov-19 17:30N 36°38' E 014°01'612.1
2017-Nov-19 17:00N 36°36' E 014°09'611.8
2017-Nov-19 16:30N 36°35' E 014°16'611.6
2017-Nov-19 15:58N 36°33' E 014°23'511.7
2017-Nov-19 15:30N 36°31' E 014°30'611.5
2017-Nov-19 15:00N 36°29' E 014°36'611.4
2017-Nov-19 14:30N 36°28' E 014°43'611.0
2017-Nov-19 13:59N 36°26' E 014°50'  

Dump ship's entire track history